createdAt,value
2018-09-02T00:00:40.406Z,5.20
2018-09-02T00:03:08.922Z,4.23
2018-09-02T00:05:37.956Z,4.23
2018-09-02T00:08:06.929Z,5.90
2018-09-02T00:10:35.664Z,6.80
2018-09-02T00:13:04.405Z,5.70
2018-09-02T00:15:33.076Z,3.73
2018-09-02T00:18:01.643Z,6.83
2018-09-02T00:20:30.209Z,4.83
2018-09-02T00:22:58.958Z,6.50
2018-09-02T00:25:27.699Z,5.83
2018-09-02T00:27:56.321Z,5.93
2018-09-02T00:30:25.220Z,4.73
2018-09-02T00:32:53.678Z,4.70
2018-09-02T00:35:22.456Z,6.73
2018-09-02T00:37:51.161Z,6.33
2018-09-02T00:40:19.640Z,6.77
2018-09-02T00:42:48.360Z,7.27
2018-09-02T00:45:16.847Z,7.97
2018-09-02T00:47:45.332Z,5.03
2018-09-02T00:50:14.089Z,8.27
2018-09-02T00:52:42.775Z,6.07
2018-09-02T00:55:11.400Z,4.03
2018-09-02T00:57:40.206Z,4.60
2018-09-02T01:00:08.681Z,5.20
2018-09-02T01:02:37.812Z,5.27
2018-09-02T01:05:06.798Z,4.77
2018-09-02T01:07:35.289Z,6.83
2018-09-02T01:10:03.869Z,5.90
2018-09-02T01:12:32.448Z,5.20
2018-09-02T01:15:01.140Z,4.67
2018-09-02T01:17:30.012Z,3.77
2018-09-02T01:19:58.494Z,8.03
2018-09-02T01:22:27.056Z,5.20
2018-09-02T01:24:55.658Z,4.80
2018-09-02T01:27:24.127Z,6.47
2018-09-02T01:29:52.619Z,4.93
2018-09-02T01:32:21.393Z,5.17
2018-09-02T01:34:50.119Z,5.67
2018-09-02T01:37:18.703Z,4.50
2018-09-02T01:39:47.386Z,6.23
2018-09-02T01:42:15.970Z,6.17
2018-09-02T01:44:44.665Z,6.93
2018-09-02T01:47:13.385Z,3.63
2018-09-02T01:49:42.187Z,4.07
2018-09-02T01:52:10.939Z,5.93
2018-09-02T01:54:39.484Z,3.87
2018-09-02T01:57:08.060Z,3.30
2018-09-02T01:59:36.703Z,5.10
2018-09-02T02:02:05.446Z,5.87
2018-09-02T02:04:39.434Z,6.47
2018-09-02T02:07:08.189Z,5.87
2018-09-02T02:09:36.723Z,5.57
2018-09-02T02:12:05.401Z,4.67
2018-09-02T02:14:33.899Z,4.83
2018-09-02T02:17:02.483Z,3.83
2018-09-02T02:19:31.788Z,4.63
2018-09-02T02:22:00.491Z,6.20
2018-09-02T02:24:29.132Z,6.07
2018-09-02T02:26:57.979Z,3.77
2018-09-02T02:29:26.587Z,6.73
2018-09-02T02:31:55.069Z,6.00
2018-09-02T02:34:24.159Z,4.47
2018-09-02T02:36:53.032Z,5.33
2018-09-02T02:39:21.533Z,5.27
2018-09-02T02:41:50.075Z,5.53
2018-09-02T02:44:18.635Z,6.80
2018-09-02T02:46:47.304Z,4.93
2018-09-02T02:49:16.155Z,7.33
2018-09-02T02:51:44.978Z,4.60
2018-09-02T02:54:13.570Z,5.93
2018-09-02T02:56:42.228Z,4.77
2018-09-02T02:59:10.756Z,4.10
2018-09-02T03:01:39.229Z,4.33
2018-09-02T03:04:07.945Z,5.43
2018-09-02T03:06:36.412Z,4.53
2018-09-02T03:09:06.459Z,3.53
2018-09-02T03:11:35.010Z,6.97
2018-09-02T03:14:03.510Z,5.00
2018-09-02T03:16:32.058Z,5.30
2018-09-02T03:19:00.643Z,6.97
2018-09-02T03:21:29.151Z,5.20
2018-09-02T03:23:57.661Z,4.33
2018-09-02T03:26:26.423Z,5.23
2018-09-02T03:28:55.143Z,4.47
2018-09-02T03:31:23.920Z,5.03
2018-09-02T03:33:52.426Z,14.20
2018-09-02T03:36:20.904Z,3.80
2018-09-02T03:38:49.452Z,6.10
2018-09-02T03:41:18.146Z,5.43
2018-09-02T03:43:47.121Z,4.03
2018-09-02T03:46:15.908Z,5.40
2018-09-02T03:48:44.528Z,5.97
2018-09-02T03:51:13.035Z,7.03
2018-09-02T03:53:41.641Z,5.17
2018-09-02T03:56:10.090Z,6.10
2018-09-02T03:58:38.764Z,7.43
2018-09-02T04:01:09.205Z,7.60
2018-09-02T04:03:37.891Z,4.77
2018-09-02T04:06:06.383Z,4.37
2018-09-02T04:08:35.537Z,5.83
2018-09-02T04:11:04.117Z,4.10
2018-09-02T04:13:32.707Z,4.63
2018-09-02T04:16:01.211Z,4.17
2018-09-02T04:18:29.866Z,4.03
2018-09-02T04:20:58.384Z,6.83
2018-09-02T04:23:26.964Z,5.57
2018-09-02T04:25:55.510Z,5.83
2018-09-02T04:28:24.007Z,6.17
2018-09-02T04:30:52.486Z,7.43
2018-09-02T04:33:21.331Z,4.40
2018-09-02T04:35:50.000Z,5.07
2018-09-02T04:38:18.477Z,4.67
2018-09-02T04:40:46.989Z,6.00
2018-09-02T04:43:15.884Z,4.30
2018-09-02T04:45:44.572Z,4.87
2018-09-02T04:48:13.175Z,6.83
2018-09-02T04:50:41.648Z,5.40
2018-09-02T04:53:10.158Z,5.80
2018-09-02T04:55:38.712Z,6.23
2018-09-02T04:58:07.216Z,9.07
2018-09-02T05:00:35.707Z,4.30
2018-09-02T05:03:04.443Z,6.13
2018-09-02T05:05:32.943Z,4.50
2018-09-02T05:08:01.532Z,5.27
2018-09-02T05:10:30.161Z,5.33
2018-09-02T05:12:58.658Z,5.40
2018-09-02T05:15:27.198Z,3.83
2018-09-02T05:17:56.214Z,5.87
2018-09-02T05:20:24.759Z,6.03
2018-09-02T05:22:54.459Z,4.60
2018-09-02T05:25:22.965Z,5.93
2018-09-02T05:27:51.801Z,3.67
2018-09-02T05:30:20.442Z,6.77
2018-09-02T05:32:48.965Z,5.53
2018-09-02T05:35:17.531Z,4.03
2018-09-02T05:37:46.376Z,4.37
2018-09-02T05:40:14.897Z,5.63
2018-09-02T05:42:43.770Z,4.30
2018-09-02T05:45:12.426Z,4.57
2018-09-02T05:47:41.053Z,4.23
2018-09-02T05:50:09.585Z,5.70
2018-09-02T05:52:38.096Z,4.87
2018-09-02T05:55:07.570Z,5.27
2018-09-02T05:57:36.404Z,5.93
2018-09-02T06:00:05.479Z,5.77
2018-09-02T06:02:34.262Z,4.53
2018-09-02T06:05:02.936Z,7.43
2018-09-02T06:07:31.415Z,6.67
2018-09-02T06:10:00.063Z,4.80
2018-09-02T06:12:28.792Z,4.87
2018-09-02T06:14:57.502Z,6.53
2018-09-02T06:17:26.311Z,5.83
2018-09-02T06:19:54.842Z,7.90
2018-09-02T06:22:23.757Z,4.80
2018-09-02T06:24:52.495Z,5.03
2018-09-02T06:27:21.245Z,6.93
2018-09-02T06:29:49.979Z,5.40
2018-09-02T06:32:18.477Z,4.57
2018-09-02T06:34:46.999Z,4.70
2018-09-02T06:37:15.719Z,8.33
2018-09-02T06:39:48.160Z,5.33
2018-09-02T06:42:17.068Z,4.07
2018-09-02T06:44:45.568Z,5.13
2018-09-02T06:47:14.333Z,6.80
2018-09-02T06:49:43.077Z,4.57
2018-09-02T06:52:12.101Z,6.17
2018-09-02T06:54:40.687Z,5.23
2018-09-02T06:57:09.261Z,5.43
2018-09-02T06:59:38.021Z,5.63
2018-09-02T07:02:06.916Z,4.40
2018-09-02T07:04:35.439Z,6.50
2018-09-02T07:07:04.456Z,5.23
2018-09-02T07:09:32.995Z,6.17
2018-09-02T07:12:01.511Z,5.90
2018-09-02T07:14:30.820Z,4.67
2018-09-02T07:16:59.308Z,4.83
2018-09-02T07:19:27.829Z,5.73
2018-09-02T07:21:56.380Z,3.93
2018-09-02T07:24:25.041Z,5.87
2018-09-02T07:26:53.579Z,6.07
2018-09-02T07:29:22.244Z,6.43
2018-09-02T07:31:50.779Z,4.30
2018-09-02T07:34:19.328Z,4.97
2018-09-02T07:36:48.415Z,6.13
2018-09-02T07:39:17.032Z,6.57
2018-09-02T07:41:45.729Z,4.90
2018-09-02T07:44:14.358Z,5.27
2018-09-02T07:46:43.018Z,5.87
2018-09-02T07:49:11.940Z,6.17
2018-09-02T07:51:40.618Z,6.93
2018-09-02T07:54:09.393Z,5.17
2018-09-02T07:56:38.036Z,5.20
2018-09-02T07:59:06.992Z,6.07
2018-09-02T08:01:35.727Z,4.87
2018-09-02T08:04:04.642Z,5.30
2018-09-02T08:06:33.379Z,4.27
2018-09-02T08:09:02.003Z,4.37
2018-09-02T08:11:30.837Z,3.33
2018-09-02T08:13:59.438Z,3.67
2018-09-02T08:16:28.264Z,4.37
2018-09-02T08:18:56.810Z,6.00
2018-09-02T08:21:25.850Z,3.37
2018-09-02T08:23:54.722Z,6.27
2018-09-02T08:26:23.282Z,3.97
2018-09-02T08:28:52.118Z,5.73
2018-09-02T08:31:20.813Z,7.20
2018-09-02T08:33:49.436Z,5.63
2018-09-02T08:36:18.223Z,2.67
2018-09-02T08:38:48.036Z,3.73
2018-09-02T08:41:16.567Z,3.03
2018-09-02T08:43:45.477Z,2.73
2018-09-02T08:46:14.395Z,3.97
2018-09-02T08:48:43.172Z,3.70
2018-09-02T08:51:11.883Z,2.97
2018-09-02T08:53:40.650Z,7.97
2018-09-02T08:56:09.538Z,2.43
2018-09-02T08:58:38.435Z,2.83
2018-09-02T09:01:07.437Z,3.90
2018-09-02T09:03:36.021Z,4.37
2018-09-02T09:06:05.103Z,2.53
2018-09-02T09:08:34.373Z,3.57
2018-09-02T09:11:03.028Z,2.90
2018-09-02T09:13:32.013Z,3.33
2018-09-02T09:16:00.933Z,2.77
2018-09-02T09:18:29.823Z,5.17
2018-09-02T09:20:58.948Z,2.50
2018-09-02T09:23:27.755Z,2.70
2018-09-02T09:25:56.849Z,2.23
2018-09-02T09:28:25.866Z,2.20
2018-09-02T09:30:54.574Z,2.50
2018-09-02T09:33:23.457Z,3.07
2018-09-02T09:35:52.673Z,2.33
2018-09-02T09:38:21.656Z,2.13
2018-09-02T09:40:51.001Z,4.90
2018-09-02T09:43:19.865Z,3.83
2018-09-02T09:45:48.897Z,3.07
2018-09-02T09:48:17.748Z,4.13
2018-09-02T09:50:46.772Z,3.52
2018-09-02T09:53:15.596Z,3.87
2018-09-02T09:55:44.418Z,2.52
2018-09-02T09:58:13.339Z,2.02
2018-09-02T10:00:47.246Z,2.83
2018-09-02T10:03:16.406Z,2.67
2018-09-02T10:05:45.222Z,3.50
2018-09-02T10:08:14.092Z,3.25
2018-09-02T10:10:43.147Z,2.70
2018-09-02T10:13:11.860Z,2.87
2018-09-02T10:15:40.769Z,2.55
2018-09-02T10:18:09.328Z,3.70
2018-09-02T10:20:37.926Z,3.45
2018-09-02T10:23:06.824Z,2.50
2018-09-02T10:25:35.555Z,3.20
2018-09-02T10:28:04.509Z,3.30
2018-09-02T10:30:33.319Z,3.17
2018-09-02T10:33:02.245Z,4.45
2018-09-02T10:35:30.928Z,2.15
2018-09-02T10:38:00.124Z,2.77
2018-09-02T10:40:28.907Z,2.52
2018-09-02T10:42:57.692Z,3.17
2018-09-02T10:45:26.457Z,2.75
2018-09-02T10:47:55.796Z,4.42
2018-09-02T10:50:24.526Z,3.08
2018-09-02T10:52:53.498Z,2.47
2018-09-02T10:55:22.323Z,2.58
2018-09-02T10:57:50.946Z,2.17
2018-09-02T11:00:19.832Z,2.83
2018-09-02T11:02:48.750Z,2.87
2018-09-02T11:05:17.311Z,3.45
2018-09-02T11:07:46.157Z,2.37
2018-09-02T11:10:14.624Z,3.17
2018-09-02T11:12:43.504Z,3.00
2018-09-02T11:15:12.364Z,5.97
2018-09-02T11:17:41.236Z,2.50
2018-09-02T11:20:10.685Z,3.02
2018-09-02T11:22:39.487Z,2.27
2018-09-02T11:25:08.616Z,2.55
2018-09-02T11:27:37.417Z,2.92
2018-09-02T11:30:06.948Z,3.70
2018-09-02T11:32:35.580Z,2.75
2018-09-02T11:35:04.469Z,4.33
2018-09-02T11:37:33.138Z,3.00
2018-09-02T11:40:02.137Z,2.52
2018-09-02T11:42:30.898Z,4.37
2018-09-02T11:44:59.643Z,1.95
2018-09-02T11:47:28.649Z,2.20
2018-09-02T11:49:57.386Z,2.25
2018-09-02T11:52:26.115Z,4.37
2018-09-02T11:54:54.939Z,3.08
2018-09-02T11:57:23.666Z,2.35
2018-09-02T11:59:52.427Z,3.22
2018-09-02T12:02:21.023Z,2.22
2018-09-02T12:04:49.651Z,2.10
2018-09-02T12:07:18.609Z,3.30
2018-09-02T12:09:47.292Z,3.83
2018-09-02T12:12:16.079Z,4.12
2018-09-02T12:14:44.851Z,4.22
2018-09-02T12:17:13.520Z,2.90
2018-09-02T12:19:42.291Z,2.00
2018-09-02T12:22:10.838Z,2.52
2018-09-02T12:24:39.885Z,2.08
2018-09-02T12:27:08.975Z,3.27
2018-09-02T12:29:37.630Z,3.35
2018-09-02T12:32:06.558Z,2.98
2018-09-02T12:34:35.137Z,2.52
2018-09-02T12:37:04.247Z,2.35
2018-09-02T12:39:32.823Z,2.72
2018-09-02T12:42:01.416Z,3.08
2018-09-02T12:44:30.392Z,2.98
2018-09-02T12:46:59.057Z,3.42
2018-09-02T12:49:27.716Z,3.35
2018-09-02T12:51:56.655Z,2.30
2018-09-02T12:54:25.609Z,2.80
2018-09-02T12:56:54.156Z,2.17
2018-09-02T12:59:23.057Z,2.37
2018-09-02T13:01:52.235Z,2.98
2018-09-02T13:04:20.957Z,3.37
2018-09-02T13:06:49.794Z,2.42
2018-09-02T13:09:18.535Z,2.75
2018-09-02T13:11:47.537Z,2.33
2018-09-02T13:14:16.296Z,2.27
2018-09-02T13:16:44.859Z,3.20
2018-09-02T13:19:13.540Z,3.75
2018-09-02T13:21:42.456Z,2.35
2018-09-02T13:24:11.557Z,1.87
2018-09-02T13:26:40.458Z,3.35
2018-09-02T13:29:09.056Z,3.25
2018-09-02T13:31:37.989Z,2.87
2018-09-02T13:34:06.778Z,3.62
2018-09-02T13:36:35.959Z,2.05
2018-09-02T13:39:06.138Z,2.15
2018-09-02T13:41:35.101Z,3.02
2018-09-02T13:44:03.764Z,2.80
2018-09-02T13:46:32.327Z,2.42
2018-09-02T13:49:01.068Z,2.42
2018-09-02T13:51:30.202Z,2.45
2018-09-02T13:53:59.257Z,3.67
2018-09-02T13:56:27.916Z,3.33
2018-09-02T13:58:56.961Z,3.15
2018-09-02T14:01:26.141Z,3.25
2018-09-02T14:03:54.880Z,2.85
2018-09-02T14:06:23.468Z,3.77
2018-09-02T14:08:52.445Z,2.67
2018-09-02T14:11:21.392Z,2.30
2018-09-02T14:13:50.297Z,3.02
2018-09-02T14:16:19.109Z,6.83
2018-09-02T14:18:48.243Z,2.20
2018-09-02T14:21:16.877Z,7.87
2018-09-02T14:23:45.575Z,3.63
2018-09-02T14:26:14.383Z,2.50
2018-09-02T14:28:43.012Z,2.33
2018-09-02T14:31:11.887Z,4.40
2018-09-02T14:33:40.678Z,3.73
2018-09-02T14:36:09.312Z,6.10
2018-09-02T14:38:38.070Z,3.33
2018-09-02T14:41:06.818Z,4.60
2018-09-02T14:43:35.804Z,5.67
2018-09-02T14:46:04.722Z,3.67
2018-09-02T14:48:33.328Z,4.30
2018-09-02T14:51:02.224Z,2.50
2018-09-02T14:53:31.329Z,2.87
2018-09-02T14:56:00.378Z,2.47
2018-09-02T14:58:29.000Z,2.73
2018-09-02T15:00:58.021Z,3.47
2018-09-02T15:03:26.858Z,3.03
2018-09-02T15:05:55.843Z,2.40
2018-09-02T15:08:24.794Z,3.13
2018-09-02T15:10:53.679Z,3.57
2018-09-02T15:13:22.345Z,3.33
2018-09-02T15:15:51.016Z,3.67
2018-09-02T15:18:19.635Z,4.37
2018-09-02T15:20:48.467Z,2.57
2018-09-02T15:23:17.503Z,3.27
2018-09-02T15:25:46.268Z,2.83
2018-09-02T15:28:14.872Z,2.37
2018-09-02T15:30:43.675Z,3.13
2018-09-02T15:33:12.561Z,4.00
2018-09-02T15:35:41.533Z,3.47
2018-09-02T15:38:10.518Z,3.20
2018-09-02T15:40:39.485Z,2.43
2018-09-02T15:43:08.473Z,4.97
2018-09-02T15:45:37.182Z,2.67
2018-09-02T15:48:05.888Z,3.03
2018-09-02T15:50:34.844Z,2.50
2018-09-02T15:53:03.763Z,4.50
2018-09-02T15:55:32.747Z,4.10
2018-09-02T15:58:01.558Z,2.37
2018-09-02T16:00:30.338Z,3.43
2018-09-02T16:02:59.365Z,3.03
2018-09-02T16:05:28.668Z,3.23
2018-09-02T16:07:57.355Z,5.40
2018-09-02T16:10:26.132Z,5.90
2018-09-02T16:12:55.280Z,3.70
2018-09-02T16:15:24.409Z,2.40
2018-09-02T16:17:53.318Z,4.17
2018-09-02T16:20:22.196Z,3.17
2018-09-02T16:22:51.285Z,2.80
2018-09-02T16:25:20.236Z,3.60
2018-09-02T16:27:49.121Z,2.27
2018-09-02T16:30:18.239Z,3.73
2018-09-02T16:32:47.252Z,3.20
2018-09-02T16:35:16.003Z,3.80
2018-09-02T16:37:44.827Z,4.77
2018-09-02T16:40:13.843Z,5.07
2018-09-02T16:42:42.787Z,3.20
2018-09-02T16:45:11.574Z,3.57
2018-09-02T16:47:40.560Z,3.80
2018-09-02T16:50:09.562Z,4.40
2018-09-02T16:52:38.498Z,3.67
2018-09-02T16:55:07.726Z,2.87
2018-09-02T16:57:37.035Z,5.30
2018-09-02T17:00:06.743Z,3.43
2018-09-02T17:02:36.020Z,3.43
2018-09-02T17:05:10.879Z,4.67
2018-09-02T17:07:39.800Z,3.43
2018-09-02T17:10:09.102Z,3.17
2018-09-02T17:12:38.556Z,3.73
2018-09-02T17:15:07.532Z,3.17
2018-09-02T17:17:36.561Z,4.00
2018-09-02T17:20:06.243Z,5.63
2018-09-02T17:22:35.334Z,2.90
2018-09-02T17:25:04.689Z,3.97
2018-09-02T17:27:33.759Z,4.10
2018-09-02T17:30:02.575Z,4.40
2018-09-02T17:32:31.638Z,3.40
2018-09-02T17:35:00.628Z,3.60
2018-09-02T17:37:29.790Z,2.87
2018-09-02T17:39:58.529Z,5.27
2018-09-02T17:42:27.337Z,4.20
2018-09-02T17:44:56.461Z,4.00
2018-09-02T17:47:25.620Z,3.13
2018-09-02T17:49:54.648Z,4.17
2018-09-02T17:52:23.657Z,2.40
2018-09-02T17:54:52.594Z,4.23
2018-09-02T17:57:21.703Z,3.97
2018-09-02T17:59:50.765Z,4.13
2018-09-02T18:02:19.714Z,3.93
2018-09-02T18:04:48.692Z,3.10
2018-09-02T18:07:17.573Z,5.17
2018-09-02T18:09:46.616Z,6.07
2018-09-02T18:12:15.513Z,5.57
2018-09-02T18:14:44.212Z,4.03
2018-09-02T18:17:12.939Z,3.73
2018-09-02T18:19:42.220Z,3.80
2018-09-02T18:22:11.166Z,6.30
2018-09-02T18:24:40.067Z,6.83
2018-09-02T18:27:09.319Z,7.00
2018-09-02T18:29:38.395Z,5.90
2018-09-02T18:32:07.786Z,3.80
2018-09-02T18:34:36.986Z,3.63
2018-09-02T18:37:06.425Z,5.37
2018-09-02T18:39:35.589Z,4.60
2018-09-02T18:42:04.966Z,5.17
2018-09-02T18:44:34.016Z,4.50
2018-09-02T18:47:03.167Z,4.47
2018-09-02T18:49:32.462Z,5.70
2018-09-02T18:52:01.535Z,7.53
2018-09-02T18:54:30.967Z,7.17
2018-09-02T18:56:59.982Z,4.47
2018-09-02T18:59:29.348Z,5.57
2018-09-02T19:01:58.714Z,3.53
2018-09-02T19:04:27.976Z,4.53
2018-09-02T19:06:56.821Z,5.87
2018-09-02T19:09:25.514Z,4.10
2018-09-02T19:11:54.285Z,3.60
2018-09-02T19:14:23.359Z,5.30
2018-09-02T19:16:52.394Z,5.90
2018-09-02T19:19:21.282Z,5.53
2018-09-02T19:21:50.350Z,4.53
2018-09-02T19:24:19.140Z,5.40
2018-09-02T19:26:48.075Z,4.10
2018-09-02T19:29:17.568Z,5.47
2018-09-02T19:31:46.671Z,4.13
2018-09-02T19:34:15.504Z,4.87
2018-09-02T19:36:44.223Z,4.63
2018-09-02T19:39:13.162Z,3.87
2018-09-02T19:41:42.084Z,7.00
2018-09-02T19:44:10.934Z,6.27
2018-09-02T19:46:39.925Z,5.93
2018-09-02T19:49:09.273Z,6.90
2018-09-02T19:51:38.163Z,4.77
2018-09-02T19:54:07.302Z,5.97
2018-09-02T19:56:35.925Z,8.57
2018-09-02T19:59:04.709Z,7.87
2018-09-02T20:01:33.448Z,8.70
2018-09-02T20:04:02.246Z,10.27
2018-09-02T20:06:31.090Z,14.03
2018-09-02T20:08:59.860Z,10.53
2018-09-02T20:11:28.444Z,6.37
2018-09-02T20:13:57.343Z,9.33
2018-09-02T20:16:25.901Z,6.63
2018-09-02T20:18:54.823Z,8.23
2018-09-02T20:21:23.605Z,13.03
2018-09-02T20:23:52.300Z,10.13
2018-09-02T20:26:21.140Z,10.47
2018-09-02T20:28:49.866Z,6.70
2018-09-02T20:31:18.553Z,9.60
2018-09-02T20:33:47.477Z,10.20
2018-09-02T20:36:16.336Z,7.70
2018-09-02T20:38:45.223Z,8.67
2018-09-02T20:41:13.903Z,9.57
2018-09-02T20:43:42.633Z,10.47
2018-09-02T20:46:11.285Z,11.97
2018-09-02T20:48:39.807Z,9.03
2018-09-02T20:51:08.407Z,10.20
2018-09-02T20:53:37.266Z,9.23
2018-09-02T20:56:05.953Z,9.50
2018-09-02T20:58:34.591Z,8.77
2018-09-02T21:01:03.385Z,10.33
2018-09-02T21:03:32.240Z,7.43
2018-09-02T21:06:00.874Z,7.60
2018-09-02T21:08:29.426Z,8.07
2018-09-02T21:10:58.164Z,8.10
2018-09-02T21:13:26.890Z,8.20
2018-09-02T21:15:55.820Z,7.43
2018-09-02T21:18:24.359Z,9.03
2018-09-02T21:20:52.929Z,11.40
2018-09-02T21:23:21.447Z,9.17
2018-09-02T21:25:50.220Z,7.43
2018-09-02T21:28:18.787Z,8.57
2018-09-02T21:30:47.594Z,7.37
2018-09-02T21:33:16.132Z,8.80
2018-09-02T21:35:44.657Z,8.87
2018-09-02T21:38:13.210Z,10.63
2018-09-02T21:40:42.048Z,8.73
2018-09-02T21:43:10.604Z,11.10
2018-09-02T21:45:39.173Z,10.10
2018-09-02T21:48:08.058Z,6.57
2018-09-02T21:50:36.890Z,8.17
2018-09-02T21:53:05.839Z,6.67
2018-09-02T21:55:34.515Z,6.33
2018-09-02T21:58:03.007Z,6.33
2018-09-02T22:00:31.605Z,11.70
2018-09-02T22:03:00.162Z,7.50
2018-09-02T22:05:28.971Z,9.70
2018-09-02T22:07:57.746Z,11.17
2018-09-02T22:10:26.283Z,8.90
2018-09-02T22:12:55.166Z,8.47
2018-09-02T22:15:23.676Z,7.83
2018-09-02T22:17:52.576Z,7.00
2018-09-02T22:20:21.169Z,7.07
2018-09-02T22:22:49.887Z,6.93
2018-09-02T22:25:18.420Z,10.60
2018-09-02T22:27:46.944Z,7.57
2018-09-02T22:30:15.773Z,5.60
2018-09-02T22:32:44.394Z,9.10
2018-09-02T22:35:13.119Z,9.77
2018-09-02T22:37:41.766Z,6.30
2018-09-02T22:40:10.687Z,10.47
2018-09-02T22:42:39.249Z,6.07
2018-09-02T22:45:07.820Z,9.47
2018-09-02T22:47:36.347Z,7.30
2018-09-02T22:50:05.084Z,7.53
2018-09-02T22:52:33.621Z,7.07
2018-09-02T22:55:02.139Z,7.50
2018-09-02T22:57:30.640Z,6.90
2018-09-02T22:59:59.405Z,11.00
2018-09-02T23:02:28.167Z,6.13
2018-09-02T23:04:56.685Z,7.43
2018-09-02T23:07:25.228Z,6.83
2018-09-02T23:09:54.120Z,7.63
2018-09-02T23:12:22.826Z,6.13
2018-09-02T23:14:51.551Z,9.30
2018-09-02T23:17:20.287Z,8.70
2018-09-02T23:19:48.828Z,5.37
2018-09-02T23:22:17.967Z,6.50
2018-09-02T23:24:46.777Z,7.07
2018-09-02T23:27:15.447Z,9.43
2018-09-02T23:29:44.216Z,8.07
2018-09-02T23:32:12.729Z,9.57
2018-09-02T23:34:41.293Z,10.00
2018-09-02T23:37:10.006Z,6.73
2018-09-02T23:39:39.189Z,8.20
2018-09-02T23:42:07.986Z,6.83
2018-09-02T23:44:36.461Z,8.00
2018-09-02T23:47:04.959Z,8.13
2018-09-02T23:49:33.503Z,9.67
2018-09-02T23:52:02.115Z,6.93
2018-09-02T23:54:30.672Z,9.40
2018-09-02T23:56:59.330Z,8.83
2018-09-02T23:59:27.831Z,7.13
